sensor_id;sensor_type;location;lat;lon;timestamp;pressure;altitude;pressure_sealevel;temperature;humidity
12781;BME280;6454;43.304;24.344;2023-02-25T00:02:05;99617.63;;;3.61;80.45
12781;BME280;6454;43.304;24.344;2023-02-25T00:04:33;99620.34;;;3.66;79.57
12781;BME280;6454;43.304;24.344;2023-02-25T00:07:01;99606.53;;;3.52;79.42
12781;BME280;6454;43.304;24.344;2023-02-25T00:09:29;99612.16;;;3.51;80.14
12781;BME280;6454;43.304;24.344;2023-02-25T00:11:55;99617.81;;;3.54;79.80
12781;BME280;6454;43.304;24.344;2023-02-25T00:14:22;99617.84;;;3.59;78.87
12781;BME280;6454;43.304;24.344;2023-02-25T00:16:49;99617.16;;;3.42;79.65
12781;BME280;6454;43.304;24.344;2023-02-25T00:19:20;99607.31;;;3.48;79.03
12781;BME280;6454;43.304;24.344;2023-02-25T00:21:47;99602.19;;;3.46;79.02
12781;BME280;6454;43.304;24.344;2023-02-25T00:24:15;99615.69;;;3.30;79.59
12781;BME280;6454;43.304;24.344;2023-02-25T00:26:42;99604.13;;;3.24;80.13
12781;BME280;6454;43.304;24.344;2023-02-25T00:29:09;99605.13;;;3.18;80.39
12781;BME280;6454;43.304;24.344;2023-02-25T00:31:35;99603.53;;;3.22;78.92
12781;BME280;6454;43.304;24.344;2023-02-25T00:34:02;99595.75;;;3.20;79.63
12781;BME280;6454;43.304;24.344;2023-02-25T00:36:29;99594.47;;;3.01;80.35
12781;BME280;6454;43.304;24.344;2023-02-25T00:38:56;99595.91;;;3.09;80.17
12781;BME280;6454;43.304;24.344;2023-02-25T00:41:26;99590.59;;;3.14;79.70
12781;BME280;6454;43.304;24.344;2023-02-25T00:43:55;99581.44;;;3.10;79.00
12781;BME280;6454;43.304;24.344;2023-02-25T00:46:23;99584.56;;;3.02;79.46
12781;BME280;6454;43.304;24.344;2023-02-25T00:48:50;99578.97;;;3.03;79.31
12781;BME280;6454;43.304;24.344;2023-02-25T00:51:18;99577.88;;;3.04;79.23
12781;BME280;6454;43.304;24.344;2023-02-25T00:53:45;99570.09;;;3.03;79.42
12781;BME280;6454;43.304;24.344;2023-02-25T00:56:13;99560.72;;;3.00;79.89
12781;BME280;6454;43.304;24.344;2023-02-25T00:58:43;99555.13;;;3.07;79.43
12781;BME280;6454;43.304;24.344;2023-02-25T01:01:18;99527.03;;;2.83;79.29
12781;BME280;6454;43.304;24.344;2023-02-25T01:03:45;99555.03;;;2.97;78.77
12781;BME280;6454;43.304;24.344;2023-02-25T01:06:12;99556.81;;;2.86;79.47
12781;BME280;6454;43.304;24.344;2023-02-25T01:08:38;99556.09;;;2.96;79.10
12781;BME280;6454;43.304;24.344;2023-02-25T01:11:16;99553.59;;;2.89;78.99
12781;BME280;6454;43.304;24.344;2023-02-25T01:13:47;99545.16;;;2.76;79.54
12781;BME280;6454;43.304;24.344;2023-02-25T01:16:16;99518.25;;;2.66;78.89
12781;BME280;6454;43.304;24.344;2023-02-25T01:18:44;99564.84;;;2.86;78.43
12781;BME280;6454;43.304;24.344;2023-02-25T01:21:14;99553.50;;;2.79;79.40
12781;BME280;6454;43.304;24.344;2023-02-25T01:23:42;99539.59;;;2.82;79.36
12781;BME280;6454;43.304;24.344;2023-02-25T01:26:09;99532.88;;;2.80;79.09
12781;BME280;6454;43.304;24.344;2023-02-25T01:28:36;99532.25;;;2.73;79.06
12781;BME280;6454;43.304;24.344;2023-02-25T01:31:04;99529.66;;;2.56;79.91
12781;BME280;6454;43.304;24.344;2023-02-25T01:33:33;99527.22;;;2.54;80.74
12781;BME280;6454;43.304;24.344;2023-02-25T01:36:03;99527.03;;;2.61;79.90
12781;BME280;6454;43.304;24.344;2023-02-25T01:38:30;99513.59;;;2.56;79.89
12781;BME280;6454;43.304;24.344;2023-02-25T01:40:58;99504.75;;;2.55;80.33
12781;BME280;6454;43.304;24.344;2023-02-25T01:43:25;99451.59;;;2.21;80.03
12781;BME280;6454;43.304;24.344;2023-02-25T01:45:53;99503.38;;;2.53;80.09
12781;BME280;6454;43.304;24.344;2023-02-25T01:48:23;99500.84;;;2.41;80.48
12781;BME280;6454;43.304;24.344;2023-02-25T01:50:53;99499.41;;;2.34;81.09
12781;BME280;6454;43.304;24.344;2023-02-25T01:53:24;99500.03;;;2.41;80.06
12781;BME280;6454;43.304;24.344;2023-02-25T01:55:52;99498.72;;;2.43;79.52
12781;BME280;6454;43.304;24.344;2023-02-25T01:58:20;99494.06;;;2.34;79.89
12781;BME280;6454;43.304;24.344;2023-02-25T02:00:47;99498.84;;;2.32;80.79
12781;BME280;6454;43.304;24.344;2023-02-25T02:03:21;99499.97;;;2.36;80.65
12781;BME280;6454;43.304;24.344;2023-02-25T02:05:58;99494.28;;;2.32;80.83
12781;BME280;6454;43.304;24.344;2023-02-25T02:08:27;99484.66;;;2.31;81.39
12781;BME280;6454;43.304;24.344;2023-02-25T02:10:54;99491.25;;;2.45;81.16
12781;BME280;6454;43.304;24.344;2023-02-25T02:13:22;99486.38;;;2.42;81.29
12781;BME280;6454;43.304;24.344;2023-02-25T02:16:07;99491.03;;;2.52;81.63
12781;BME280;6454;43.304;24.344;2023-02-25T02:18:42;99477.09;;;2.50;81.67
12781;BME280;6454;43.304;24.344;2023-02-25T02:21:25;99485.81;;;2.62;81.14
12781;BME280;6454;43.304;24.344;2023-02-25T02:24:24;99479.09;;;2.59;81.14
12781;BME280;6454;43.304;24.344;2023-02-25T02:26:59;99475.91;;;2.63;80.86
12781;BME280;6454;43.304;24.344;2023-02-25T02:29:41;99474.81;;;2.58;80.76
12781;BME280;6454;43.304;24.344;2023-02-25T02:32:19;99476.13;;;2.56;79.81
12781;BME280;6454;43.304;24.344;2023-02-25T02:34:57;99473.56;;;2.44;80.49
12781;BME280;6454;43.304;24.344;2023-02-25T02:37:34;99479.66;;;2.40;80.00
12781;BME280;6454;43.304;24.344;2023-02-25T02:40:20;99465.66;;;2.33;80.17
12781;BME280;6454;43.304;24.344;2023-02-25T02:43:05;99469.59;;;2.25;80.85
12781;BME280;6454;43.304;24.344;2023-02-25T02:45:39;99440.44;;;2.07;80.97
12781;BME280;6454;43.304;24.344;2023-02-25T02:48:13;99479.31;;;2.31;80.12
12781;BME280;6454;43.304;24.344;2023-02-25T02:50:43;99462.69;;;2.29;80.20
12781;BME280;6454;43.304;24.344;2023-02-25T02:53:15;99466.09;;;2.25;80.79
12781;BME280;6454;43.304;24.344;2023-02-25T02:55:49;99459.09;;;2.19;80.79
12781;BME280;6454;43.304;24.344;2023-02-25T02:58:21;99460.63;;;2.15;80.56
12781;BME280;6454;43.304;24.344;2023-02-25T03:00:55;99466.97;;;2.09;81.37
12781;BME280;6454;43.304;24.344;2023-02-25T03:03:29;99462.72;;;2.13;81.96
12781;BME280;6454;43.304;24.344;2023-02-25T03:06:03;99461.63;;;2.09;81.76
12781;BME280;6454;43.304;24.344;2023-02-25T03:08:34;99457.50;;;2.01;81.98
12781;BME280;6454;43.304;24.344;2023-02-25T03:11:04;99459.31;;;1.95;82.72
12781;BME280;6454;43.304;24.344;2023-02-25T03:13:31;99456.44;;;2.02;82.46
12781;BME280;6454;43.304;24.344;2023-02-25T03:15:58;99437.22;;;2.05;82.11
12781;BME280;6454;43.304;24.344;2023-02-25T03:18:31;99438.22;;;1.99;82.67
12781;BME280;6454;43.304;24.344;2023-02-25T03:21:01;99437.16;;;2.00;83.06
12781;BME280;6454;43.304;24.344;2023-02-25T03:23:32;99438.59;;;2.08;82.05
12781;BME280;6454;43.304;24.344;2023-02-25T03:26:06;99429.53;;;2.09;81.82
12781;BME280;6454;43.304;24.344;2023-02-25T03:28:37;99431.06;;;2.05;81.76
12781;BME280;6454;43.304;24.344;2023-02-25T03:31:07;99420.13;;;2.06;82.67
12781;BME280;6454;43.304;24.344;2023-02-25T03:33:38;99421.38;;;2.20;81.66
12781;BME280;6454;43.304;24.344;2023-02-25T03:36:16;99434.25;;;2.23;81.00
12781;BME280;6454;43.304;24.344;2023-02-25T03:38:48;99426.66;;;2.15;81.59
12781;BME280;6454;43.304;24.344;2023-02-25T03:41:18;99427.72;;;2.14;82.22
12781;BME280;6454;43.304;24.344;2023-02-25T03:43:50;99418.69;;;2.20;80.95
12781;BME280;6454;43.304;24.344;2023-02-25T03:46:19;99419.69;;;2.14;81.15
12781;BME280;6454;43.304;24.344;2023-02-25T03:48:48;99420.34;;;2.05;82.07
12781;BME280;6454;43.304;24.344;2023-02-25T03:51:19;99409.72;;;2.10;82.00
12781;BME280;6454;43.304;24.344;2023-02-25T03:53:47;99413.53;;;2.14;81.40
12781;BME280;6454;43.304;24.344;2023-02-25T03:56:14;99409.50;;;2.11;81.50
12781;BME280;6454;43.304;24.344;2023-02-25T03:58:42;99404.63;;;2.08;81.78
12781;BME280;6454;43.304;24.344;2023-02-25T04:01:11;99397.66;;;2.07;81.81
12781;BME280;6454;43.304;24.344;2023-02-25T04:03:39;99392.38;;;2.12;80.85
12781;BME280;6454;43.304;24.344;2023-02-25T04:06:09;99390.44;;;2.08;81.09
12781;BME280;6454;43.304;24.344;2023-02-25T04:08:35;99378.88;;;2.02;82.26
12781;BME280;6454;43.304;24.344;2023-02-25T04:11:03;99377.13;;;2.13;82.30
12781;BME280;6454;43.304;24.344;2023-02-25T04:13:29;99379.56;;;2.14;82.22
12781;BME280;6454;43.304;24.344;2023-02-25T04:15:56;99374.16;;;2.09;81.74
12781;BME280;6454;43.304;24.344;2023-02-25T04:18:23;99379.00;;;2.12;81.32
12781;BME280;6454;43.304;24.344;2023-02-25T04:20:50;99385.91;;;2.08;81.07
12781;BME280;6454;43.304;24.344;2023-02-25T04:23:19;99389.56;;;2.02;81.46
12781;BME280;6454;43.304;24.344;2023-02-25T04:25:45;99375.53;;;1.90;81.98
12781;BME280;6454;43.304;24.344;2023-02-25T04:28:12;99392.25;;;2.02;81.92
12781;BME280;6454;43.304;24.344;2023-02-25T04:30:39;99381.47;;;1.97;81.76
12781;BME280;6454;43.304;24.344;2023-02-25T04:33:06;99382.63;;;2.01;81.93
12781;BME280;6454;43.304;24.344;2023-02-25T04:35:33;99374.59;;;2.01;82.62
12781;BME280;6454;43.304;24.344;2023-02-25T04:37:59;99376.78;;;2.04;81.70
12781;BME280;6454;43.304;24.344;2023-02-25T04:40:28;99378.09;;;2.02;82.04
12781;BME280;6454;43.304;24.344;2023-02-25T04:42:54;99375.09;;;1.98;82.98
12781;BME280;6454;43.304;24.344;2023-02-25T04:45:21;99376.78;;;2.04;83.97
12781;BME280;6454;43.304;24.344;2023-02-25T04:47:50;99370.97;;;2.12;83.08
12781;BME280;6454;43.304;24.344;2023-02-25T04:50:19;99377.28;;;2.01;83.20
12781;BME280;6454;43.304;24.344;2023-02-25T04:52:45;99374.34;;;2.03;82.70
12781;BME280;6454;43.304;24.344;2023-02-25T04:55:12;99344.44;;;1.84;82.53
12781;BME280;6454;43.304;24.344;2023-02-25T04:57:41;99368.69;;;1.99;81.91
12781;BME280;6454;43.304;24.344;2023-02-25T05:00:11;99356.66;;;1.80;82.13
12781;BME280;6454;43.304;24.344;2023-02-25T05:02:41;99364.81;;;1.90;82.68
12781;BME280;6454;43.304;24.344;2023-02-25T05:05:08;99360.09;;;1.97;81.24
12781;BME280;6454;43.304;24.344;2023-02-25T05:07:35;99355.19;;;1.89;81.54
12781;BME280;6454;43.304;24.344;2023-02-25T05:10:03;99355.75;;;1.91;82.11
12781;BME280;6454;43.304;24.344;2023-02-25T05:12:30;99361.09;;;1.91;81.56
12781;BME280;6454;43.304;24.344;2023-02-25T05:14:58;99362.09;;;1.85;82.16
12781;BME280;6454;43.304;24.344;2023-02-25T05:17:25;99262.50;;;1.29;82.49
12781;BME280;6454;43.304;24.344;2023-02-25T05:19:52;99358.63;;;1.84;83.08
12781;BME280;6454;43.304;24.344;2023-02-25T05:22:19;99361.31;;;1.84;83.56
12781;BME280;6454;43.304;24.344;2023-02-25T05:24:46;99363.22;;;1.89;84.19
12781;BME280;6454;43.304;24.344;2023-02-25T05:27:13;99357.19;;;1.99;83.64
12781;BME280;6454;43.304;24.344;2023-02-25T05:29:40;99362.09;;;2.07;82.90
12781;BME280;6454;43.304;24.344;2023-02-25T05:32:08;99358.34;;;2.08;82.32
12781;BME280;6454;43.304;24.344;2023-02-25T05:34:34;99353.19;;;2.01;82.52
12781;BME280;6454;43.304;24.344;2023-02-25T05:37:01;99359.91;;;2.04;83.93
12781;BME280;6454;43.304;24.344;2023-02-25T05:39:28;99361.28;;;2.06;84.07
12781;BME280;6454;43.304;24.344;2023-02-25T05:41:55;99359.16;;;2.08;84.15
12781;BME280;6454;43.304;24.344;2023-02-25T05:44:22;99363.97;;;2.06;84.54
12781;BME280;6454;43.304;24.344;2023-02-25T05:46:49;99361.47;;;2.21;85.31
12781;BME280;6454;43.304;24.344;2023-02-25T05:49:17;99372.81;;;2.33;86.12
12781;BME280;6454;43.304;24.344;2023-02-25T05:51:44;99365.34;;;2.35;86.34
12781;BME280;6454;43.304;24.344;2023-02-25T05:54:11;99364.09;;;2.43;86.66
12781;BME280;6454;43.304;24.344;2023-02-25T05:56:37;99366.91;;;2.58;86.83
12781;BME280;6454;43.304;24.344;2023-02-25T05:59:04;99365.44;;;2.72;87.36
12781;BME280;6454;43.304;24.344;2023-02-25T06:01:31;99377.53;;;2.80;87.42
12781;BME280;6454;43.304;24.344;2023-02-25T06:03:58;99362.09;;;2.92;87.82
12781;BME280;6454;43.304;24.344;2023-02-25T06:06:28;99366.00;;;3.06;87.68
12781;BME280;6454;43.304;24.344;2023-02-25T06:08:56;99356.19;;;3.21;87.73
12781;BME280;6454;43.304;24.344;2023-02-25T06:11:25;99360.78;;;3.26;87.75
12781;BME280;6454;43.304;24.344;2023-02-25T06:13:53;99357.56;;;3.29;88.06
12781;BME280;6454;43.304;24.344;2023-02-25T06:16:21;99358.78;;;3.48;88.80
12781;BME280;6454;43.304;24.344;2023-02-25T06:18:50;99361.25;;;3.60;89.09
12781;BME280;6454;43.304;24.344;2023-02-25T06:21:17;99357.03;;;3.69;88.82
12781;BME280;6454;43.304;24.344;2023-02-25T06:23:45;99353.81;;;3.77;89.30
12781;BME280;6454;43.304;24.344;2023-02-25T06:26:15;99353.88;;;3.87;89.20
12781;BME280;6454;43.304;24.344;2023-02-25T06:28:42;99357.91;;;3.89;89.50
12781;BME280;6454;43.304;24.344;2023-02-25T06:31:10;99355.78;;;3.97;89.96
12781;BME280;6454;43.304;24.344;2023-02-25T06:33:37;99358.00;;;4.20;89.42
12781;BME280;6454;43.304;24.344;2023-02-25T06:36:05;99362.88;;;4.28;89.22
12781;BME280;6454;43.304;24.344;2023-02-25T06:38:33;99356.41;;;4.29;89.10
12781;BME280;6454;43.304;24.344;2023-02-25T06:41:04;99354.84;;;4.33;89.53
12781;BME280;6454;43.304;24.344;2023-02-25T06:43:31;99348.16;;;4.45;90.34
12781;BME280;6454;43.304;24.344;2023-02-25T06:45:58;99347.91;;;4.57;90.41
12781;BME280;6454;43.304;24.344;2023-02-25T06:48:25;99347.09;;;4.67;90.34
12781;BME280;6454;43.304;24.344;2023-02-25T06:50:52;99337.16;;;4.67;90.59
12781;BME280;6454;43.304;24.344;2023-02-25T06:53:18;99337.69;;;4.84;90.25
12781;BME280;6454;43.304;24.344;2023-02-25T06:55:46;99333.97;;;5.00;89.96
12781;BME280;6454;43.304;24.344;2023-02-25T06:58:15;99328.81;;;5.09;89.51
12781;BME280;6454;43.304;24.344;2023-02-25T07:00:42;99336.34;;;5.22;89.11
12781;BME280;6454;43.304;24.344;2023-02-25T07:03:10;99326.63;;;5.36;89.20
12781;BME280;6454;43.304;24.344;2023-02-25T07:05:37;99325.84;;;5.41;88.92
12781;BME280;6454;43.304;24.344;2023-02-25T07:08:04;99323.16;;;5.41;89.65
12781;BME280;6454;43.304;24.344;2023-02-25T07:10:31;99297.03;;;5.41;90.27
12781;BME280;6454;43.304;24.344;2023-02-25T07:12:58;99302.31;;;5.71;90.71
12781;BME280;6454;43.304;24.344;2023-02-25T07:15:26;99302.81;;;5.89;90.41
12781;BME280;6454;43.304;24.344;2023-02-25T07:17:53;99294.69;;;5.99;90.14
12781;BME280;6454;43.304;24.344;2023-02-25T07:20:20;99298.41;;;6.13;90.10
12781;BME280;6454;43.304;24.344;2023-02-25T07:22:46;99295.88;;;6.26;90.12
12781;BME280;6454;43.304;24.344;2023-02-25T07:25:13;99301.19;;;6.41;90.22
12781;BME280;6454;43.304;24.344;2023-02-25T07:27:41;99297.31;;;6.58;90.16
12781;BME280;6454;43.304;24.344;2023-02-25T07:30:09;99282.63;;;6.74;90.69
12781;BME280;6454;43.304;24.344;2023-02-25T07:32:39;99276.28;;;6.88;91.46
12781;BME280;6454;43.304;24.344;2023-02-25T07:35:07;99277.84;;;7.23;92.07
12781;BME280;6454;43.304;24.344;2023-02-25T07:37:34;99253.34;;;7.43;92.54
12781;BME280;6454;43.304;24.344;2023-02-25T07:40:02;99263.75;;;7.97;93.20
12781;BME280;6454;43.304;24.344;2023-02-25T07:42:29;99259.03;;;8.26;92.99
12781;BME280;6454;43.304;24.344;2023-02-25T07:44:56;99255.88;;;8.57;92.59
12781;BME280;6454;43.304;24.344;2023-02-25T07:47:22;99257.84;;;8.83;92.11
12781;BME280;6454;43.304;24.344;2023-02-25T07:49:50;99241.47;;;8.93;91.45
12781;BME280;6454;43.304;24.344;2023-02-25T07:52:17;99259.97;;;9.46;90.08
12781;BME280;6454;43.304;24.344;2023-02-25T07:54:44;99250.91;;;9.78;88.33
12781;BME280;6454;43.304;24.344;2023-02-25T07:57:11;99250.09;;;10.04;88.10
12781;BME280;6454;43.304;24.344;2023-02-25T07:59:38;99245.56;;;10.27;87.07
12781;BME280;6454;43.304;24.344;2023-02-25T08:02:04;99246.97;;;10.47;86.38
12781;BME280;6454;43.304;24.344;2023-02-25T08:04:34;99247.78;;;10.69;85.34
12781;BME280;6454;43.304;24.344;2023-02-25T08:07:02;99243.56;;;10.85;85.24
12781;BME280;6454;43.304;24.344;2023-02-25T08:09:29;99241.91;;;10.98;83.10
12781;BME280;6454;43.304;24.344;2023-02-25T08:11:56;99239.94;;;11.21;80.20
12781;BME280;6454;43.304;24.344;2023-02-25T08:14:23;99241.50;;;11.52;78.39
12781;BME280;6454;43.304;24.344;2023-02-25T08:16:49;99238.28;;;11.81;76.06
12781;BME280;6454;43.304;24.344;2023-02-25T08:19:17;99241.03;;;12.07;69.43
12781;BME280;6454;43.304;24.344;2023-02-25T08:21:44;99243.44;;;12.34;67.09
12781;BME280;6454;43.304;24.344;2023-02-25T08:24:12;99252.25;;;12.65;63.83
12781;BME280;6454;43.304;24.344;2023-02-25T08:26:39;99248.22;;;12.88;61.54
12781;BME280;6454;43.304;24.344;2023-02-25T08:29:06;99202.59;;;12.85;61.28
12781;BME280;6454;43.304;24.344;2023-02-25T08:31:33;99223.22;;;13.04;61.48
12781;BME280;6454;43.304;24.344;2023-02-25T08:34:00;99218.03;;;13.19;61.36
12781;BME280;6454;43.304;24.344;2023-02-25T08:36:28;99218.69;;;13.16;63.14
12781;BME280;6454;43.304;24.344;2023-02-25T08:38:56;99198.84;;;13.16;64.12
12781;BME280;6454;43.304;24.344;2023-02-25T08:41:26;99198.84;;;13.16;65.38
12781;BME280;6454;43.304;24.344;2023-02-25T08:43:55;99179.16;;;13.10;66.47
12781;BME280;6454;43.304;24.344;2023-02-25T08:46:23;99183.34;;;13.08;67.64
12781;BME280;6454;43.304;24.344;2023-02-25T08:48:51;99179.31;;;13.05;67.79
12781;BME280;6454;43.304;24.344;2023-02-25T08:51:20;99179.31;;;13.05;68.30
12781;BME280;6454;43.304;24.344;2023-02-25T08:53:47;99173.25;;;13.00;68.51
12781;BME280;6454;43.304;24.344;2023-02-25T08:56:14;99164.25;;;12.99;69.59
12781;BME280;6454;43.304;24.344;2023-02-25T08:58:43;99165.88;;;13.00;69.68
12781;BME280;6454;43.304;24.344;2023-02-25T09:01:12;99172.13;;;13.01;68.70
12781;BME280;6454;43.304;24.344;2023-02-25T09:03:39;99165.06;;;13.00;68.53
12781;BME280;6454;43.304;24.344;2023-02-25T09:06:15;99165.53;;;13.02;69.03
12781;BME280;6454;43.304;24.344;2023-02-25T09:08:42;99163.97;;;13.01;68.30
12781;BME280;6454;43.304;24.344;2023-02-25T09:11:09;99163.97;;;13.01;68.62
12781;BME280;6454;43.304;24.344;2023-02-25T09:13:36;99161.22;;;13.09;65.87
12781;BME280;6454;43.304;24.344;2023-02-25T09:16:05;99161.19;;;13.18;64.92
12781;BME280;6454;43.304;24.344;2023-02-25T09:18:31;99157.16;;;13.24;63.48
12781;BME280;6454;43.304;24.344;2023-02-25T09:20:58;99151.19;;;13.30;62.16
12781;BME280;6454;43.304;24.344;2023-02-25T09:23:25;99151.81;;;13.36;60.85
12781;BME280;6454;43.304;24.344;2023-02-25T09:25:52;99148.91;;;13.41;61.54
12781;BME280;6454;43.304;24.344;2023-02-25T09:28:19;99138.47;;;13.43;60.65
12781;BME280;6454;43.304;24.344;2023-02-25T09:30:46;99136.69;;;13.47;60.32
12781;BME280;6454;43.304;24.344;2023-02-25T09:33:14;99127.81;;;13.59;58.44
12781;BME280;6454;43.304;24.344;2023-02-25T09:35:41;99135.66;;;13.60;58.14
12781;BME280;6454;43.304;24.344;2023-02-25T09:38:08;99132.06;;;13.68;58.04
12781;BME280;6454;43.304;24.344;2023-02-25T09:40:36;99124.97;;;13.76;58.16
12781;BME280;6454;43.304;24.344;2023-02-25T09:43:09;99118.72;;;13.75;56.95
12781;BME280;6454;43.304;24.344;2023-02-25T09:45:42;99124.63;;;13.77;56.49
12781;BME280;6454;43.304;24.344;2023-02-25T09:48:16;99118.50;;;13.80;56.76
12781;BME280;6454;43.304;24.344;2023-02-25T09:50:47;99093.91;;;13.68;57.21
12781;BME280;6454;43.304;24.344;2023-02-25T09:53:20;99118.31;;;13.85;56.78
12781;BME280;6454;43.304;24.344;2023-02-25T09:55:50;99104.69;;;13.85;56.29
12781;BME280;6454;43.304;24.344;2023-02-25T09:58:22;99116.00;;;13.96;57.47
12781;BME280;6454;43.304;24.344;2023-02-25T10:00:59;99098.16;;;13.98;57.01
12781;BME280;6454;43.304;24.344;2023-02-25T10:03:40;99093.47;;;13.99;57.48
12781;BME280;6454;43.304;24.344;2023-02-25T10:06:15;99080.66;;;13.99;57.58
12781;BME280;6454;43.304;24.344;2023-02-25T10:08:49;99085.44;;;14.02;57.36
12781;BME280;6454;43.304;24.344;2023-02-25T10:11:28;99070.94;;;14.10;58.10
12781;BME280;6454;43.304;24.344;2023-02-25T10:14:00;99057.09;;;14.15;58.08
12781;BME280;6454;43.304;24.344;2023-02-25T10:16:40;99057.81;;;14.25;58.21
12781;BME280;6454;43.304;24.344;2023-02-25T10:19:19;99044.22;;;14.37;57.51
12781;BME280;6454;43.304;24.344;2023-02-25T10:21:58;99052.09;;;14.50;57.31
12781;BME280;6454;43.304;24.344;2023-02-25T10:24:31;98961.94;;;14.02;56.40
12781;BME280;6454;43.304;24.344;2023-02-25T10:27:08;99060.19;;;14.71;55.33
12781;BME280;6454;43.304;24.344;2023-02-25T10:29:41;99046.66;;;14.74;55.10
12781;BME280;6454;43.304;24.344;2023-02-25T10:32:19;99040.44;;;14.98;55.19
12781;BME280;6454;43.304;24.344;2023-02-25T10:34:49;99034.00;;;15.18;54.58
12781;BME280;6454;43.304;24.344;2023-02-25T10:37:20;98911.13;;;14.42;54.50
12781;BME280;6454;43.304;24.344;2023-02-25T10:39:53;99037.41;;;15.52;53.07
12781;BME280;6454;43.304;24.344;2023-02-25T10:42:21;99035.63;;;15.71;51.57
12781;BME280;6454;43.304;24.344;2023-02-25T10:44:48;99040.03;;;15.88;50.34
12781;BME280;6454;43.304;24.344;2023-02-25T10:47:22;99014.13;;;15.97;49.99
12781;BME280;6454;43.304;24.344;2023-02-25T10:50:18;99021.66;;;16.16;49.09
12781;BME280;6454;43.304;24.344;2023-02-25T10:53:00;98952.53;;;15.88;49.75
12781;BME280;6454;43.304;24.344;2023-02-25T10:55:34;99018.06;;;16.43;48.90
12781;BME280;6454;43.304;24.344;2023-02-25T10:58:03;99010.81;;;16.51;46.90
12781;BME280;6454;43.304;24.344;2023-02-25T11:00:33;99003.63;;;16.58;44.28
12781;BME280;6454;43.304;24.344;2023-02-25T11:03:03;98996.31;;;16.62;44.30
12781;BME280;6454;43.304;24.344;2023-02-25T11:05:38;98970.50;;;16.63;44.51
12781;BME280;6454;43.304;24.344;2023-02-25T11:08:24;98984.72;;;16.85;44.72
12781;BME280;6454;43.304;24.344;2023-02-25T11:11:00;98897.66;;;16.28;44.38
12781;BME280;6454;43.304;24.344;2023-02-25T11:13:29;98986.16;;;16.98;45.54
12781;BME280;6454;43.304;24.344;2023-02-25T11:15:58;98978.19;;;17.08;45.81
12781;BME280;6454;43.304;24.344;2023-02-25T11:18:30;98977.13;;;17.13;44.91
12781;BME280;6454;43.304;24.344;2023-02-25T11:21:01;98923.84;;;16.75;45.81
12781;BME280;6454;43.304;24.344;2023-02-25T11:23:34;98983.75;;;17.12;45.20
12781;BME280;6454;43.304;24.344;2023-02-25T11:26:02;98973.16;;;17.10;46.82
12781;BME280;6454;43.304;24.344;2023-02-25T11:28:33;98984.19;;;17.14;46.39
12781;BME280;6454;43.304;24.344;2023-02-25T11:31:07;98971.34;;;17.18;47.33
12781;BME280;6454;43.304;24.344;2023-02-25T11:33:37;98968.78;;;17.25;47.08
12781;BME280;6454;43.304;24.344;2023-02-25T11:36:08;98973.53;;;17.28;47.48
12781;BME280;6454;43.304;24.344;2023-02-25T11:38:36;98965.25;;;17.24;47.34
12781;BME280;6454;43.304;24.344;2023-02-25T11:41:14;98958.53;;;17.22;46.87
12781;BME280;6454;43.304;24.344;2023-02-25T11:43:43;98928.88;;;17.08;46.00
12781;BME280;6454;43.304;24.344;2023-02-25T11:46:11;98942.97;;;17.26;43.64
12781;BME280;6454;43.304;24.344;2023-02-25T11:48:48;98952.63;;;17.39;41.76
12781;BME280;6454;43.304;24.344;2023-02-25T11:51:22;98964.03;;;17.41;42.41
12781;BME280;6454;43.304;24.344;2023-02-25T11:53:59;98905.44;;;17.11;41.53
12781;BME280;6454;43.304;24.344;2023-02-25T11:56:31;98810.69;;;16.52;41.99
12781;BME280;6454;43.304;24.344;2023-02-25T11:59:08;98960.56;;;17.44;41.71
12781;BME280;6454;43.304;24.344;2023-02-25T12:01:50;98958.97;;;17.43;42.18
12781;BME280;6454;43.304;24.344;2023-02-25T12:04:40;98959.06;;;17.47;41.38
12781;BME280;6454;43.304;24.344;2023-02-25T12:07:46;98960.19;;;17.46;41.09
12781;BME280;6454;43.304;24.344;2023-02-25T12:20:05;98954.81;;;17.49;40.37
12781;BME280;6454;43.304;24.344;2023-02-25T12:23:05;98922.81;;;17.37;40.36
12781;BME280;6454;43.304;24.344;2023-02-25T12:25:46;98957.22;;;17.70;40.29
12781;BME280;6454;43.304;24.344;2023-02-25T12:34:28;98949.69;;;17.86;39.51
12781;BME280;6454;43.304;24.344;2023-02-25T12:37:12;98945.03;;;17.90;39.16
12781;BME280;6454;43.304;24.344;2023-02-25T12:39:55;98928.59;;;17.90;38.75
12781;BME280;6454;43.304;24.344;2023-02-25T12:42:47;98944.41;;;17.96;38.68
12781;BME280;6454;43.304;24.344;2023-02-25T12:48:36;98933.41;;;17.96;38.87
12781;BME280;6454;43.304;24.344;2023-02-25T12:54:14;98940.13;;;17.99;38.83
12781;BME280;6454;43.304;24.344;2023-02-25T13:00:28;98938.78;;;17.89;39.17
12781;BME280;6454;43.304;24.344;2023-02-25T13:03:12;98936.88;;;17.93;38.95
12781;BME280;6454;43.304;24.344;2023-02-25T13:06:15;98935.66;;;17.91;38.51
12781;BME280;6454;43.304;24.344;2023-02-25T13:08:54;98931.81;;;17.95;39.17
12781;BME280;6454;43.304;24.344;2023-02-25T13:11:33;98938.84;;;17.93;41.93
12781;BME280;6454;43.304;24.344;2023-02-25T13:14:17;98941.06;;;17.87;44.10
12781;BME280;6454;43.304;24.344;2023-02-25T13:17:12;98955.72;;;17.72;44.34
12781;BME280;6454;43.304;24.344;2023-02-25T13:20:13;98933.59;;;17.65;45.49
12781;BME280;6454;43.304;24.344;2023-02-25T13:22:55;98933.31;;;17.70;47.14
12781;BME280;6454;43.304;24.344;2023-02-25T13:25:44;98933.47;;;17.77;49.85
12781;BME280;6454;43.304;24.344;2023-02-25T13:28:26;98937.81;;;17.59;52.53
12781;BME280;6454;43.304;24.344;2023-02-25T13:31:00;98932.00;;;17.45;53.17
12781;BME280;6454;43.304;24.344;2023-02-25T13:33:43;98921.03;;;17.26;53.57
12781;BME280;6454;43.304;24.344;2023-02-25T13:36:39;98919.28;;;17.18;54.48
12781;BME280;6454;43.304;24.344;2023-02-25T13:39:22;98921.47;;;17.09;54.44
12781;BME280;6454;43.304;24.344;2023-02-25T13:42:07;98884.22;;;16.69;55.03
12781;BME280;6454;43.304;24.344;2023-02-25T13:44:49;98913.81;;;16.99;55.22
12781;BME280;6454;43.304;24.344;2023-02-25T13:47:39;98912.47;;;16.93;55.59
12781;BME280;6454;43.304;24.344;2023-02-25T13:50:27;98911.09;;;16.83;55.09
12781;BME280;6454;43.304;24.344;2023-02-25T13:53:12;98912.66;;;16.65;54.58
12781;BME280;6454;43.304;24.344;2023-02-25T13:56:05;98910.00;;;16.53;54.90